createdAt,value
2023-01-24T00:01:56.299Z,3.90
2023-01-24T00:04:28.044Z,3.90
2023-01-24T00:06:57.189Z,3.90
2023-01-24T00:09:26.371Z,3.90
2023-01-24T00:11:55.560Z,3.80
2023-01-24T00:14:24.420Z,3.80
2023-01-24T00:16:53.612Z,3.80
2023-01-24T00:19:22.630Z,3.90
2023-01-24T00:21:52.978Z,3.80
2023-01-24T00:24:21.861Z,3.80
2023-01-24T00:26:50.963Z,3.80
2023-01-24T00:29:20.839Z,3.80
2023-01-24T00:31:50.317Z,3.90
2023-01-24T00:34:20.661Z,3.80
2023-01-24T00:36:49.799Z,3.80
2023-01-24T00:39:20.367Z,3.80
2023-01-24T00:41:50.174Z,3.80
2023-01-24T00:44:20.500Z,3.90
2023-01-24T00:46:50.777Z,3.80
2023-01-24T00:49:21.011Z,3.70
2023-01-24T00:51:51.416Z,3.70
2023-01-24T00:54:21.960Z,3.70
2023-01-24T00:56:51.018Z,3.70
2023-01-24T00:59:20.092Z,3.70
2023-01-24T01:01:49.892Z,3.70
2023-01-24T01:04:19.547Z,3.80
2023-01-24T01:06:48.749Z,3.70
2023-01-24T01:09:17.936Z,3.70
2023-01-24T01:11:48.553Z,3.70
2023-01-24T01:14:17.883Z,3.70
2023-01-24T01:16:47.009Z,3.70
2023-01-24T01:19:16.492Z,3.70
2023-01-24T01:21:45.905Z,3.70
2023-01-24T01:24:14.967Z,3.70
2023-01-24T01:26:43.845Z,3.80
2023-01-24T01:29:14.249Z,3.70
2023-01-24T01:31:43.415Z,3.70
2023-01-24T01:34:13.656Z,3.70
2023-01-24T01:36:43.379Z,3.80
2023-01-24T01:39:12.870Z,3.70
2023-01-24T01:41:41.952Z,3.70
2023-01-24T01:44:48.108Z,3.80
2023-01-24T01:47:27.808Z,3.70
2023-01-24T01:50:02.093Z,3.70
2023-01-24T01:52:35.843Z,3.70
2023-01-24T01:55:09.655Z,3.80
2023-01-24T01:57:39.179Z,3.70
2023-01-24T02:00:16.785Z,3.70
2023-01-24T02:02:50.130Z,3.70
2023-01-24T02:05:23.612Z,3.70
2023-01-24T02:07:57.600Z,3.70
2023-01-24T02:10:48.607Z,3.70
2023-01-24T02:13:19.548Z,3.70
2023-01-24T02:16:05.255Z,3.70
2023-01-24T02:18:37.417Z,3.80
2023-01-24T02:21:09.464Z,3.80
2023-01-24T02:23:50.188Z,3.80
2023-01-24T02:26:24.467Z,3.70
2023-01-24T02:28:57.912Z,3.80
2023-01-24T02:31:28.475Z,3.70
2023-01-24T02:33:58.108Z,3.70
2023-01-24T02:36:31.810Z,3.70
2023-01-24T02:39:04.856Z,3.70
2023-01-24T02:41:40.169Z,3.70
2023-01-24T02:44:14.133Z,3.70
2023-01-24T02:46:46.604Z,3.70
2023-01-24T02:49:16.611Z,3.60
2023-01-24T02:52:02.419Z,3.60
2023-01-24T02:54:33.151Z,3.60
2023-01-24T02:57:21.499Z,3.60
2023-01-24T02:59:50.224Z,3.70
2023-01-24T03:02:19.703Z,3.60
2023-01-24T03:04:48.787Z,3.60
2023-01-24T03:07:18.947Z,3.60
2023-01-24T03:09:55.838Z,3.60
2023-01-24T03:12:45.465Z,3.60
2023-01-24T03:15:32.328Z,3.50
2023-01-24T03:18:18.961Z,3.60
2023-01-24T03:21:07.602Z,3.60
2023-01-24T03:23:55.157Z,3.50
2023-01-24T03:26:41.756Z,3.60
2023-01-24T03:29:30.318Z,3.60
2023-01-24T03:32:17.549Z,3.50
2023-01-24T03:34:52.087Z,3.40
2023-01-24T03:37:42.038Z,3.40
2023-01-24T03:40:16.355Z,3.40
2023-01-24T03:42:51.402Z,3.40
2023-01-24T03:45:31.483Z,3.40
2023-01-24T03:48:03.921Z,3.40
2023-01-24T03:50:53.735Z,3.40
2023-01-24T03:53:27.365Z,3.40
2023-01-24T03:56:01.071Z,3.30
2023-01-24T03:58:35.528Z,3.30
2023-01-24T04:01:11.350Z,3.20
2023-01-24T04:04:00.727Z,3.20
2023-01-24T04:06:31.240Z,3.30
2023-01-24T04:09:03.380Z,3.30
2023-01-24T04:11:33.076Z,3.30
2023-01-24T04:14:16.128Z,3.30
2023-01-24T04:17:05.304Z,3.30
2023-01-24T04:19:42.996Z,3.30
2023-01-24T04:22:13.367Z,3.20
2023-01-24T04:24:42.110Z,3.30
2023-01-24T04:27:11.244Z,3.30
2023-01-24T04:30:03.637Z,3.30
2023-01-24T04:32:37.707Z,3.30
2023-01-24T04:35:25.191Z,3.30
2023-01-24T04:38:01.090Z,3.20
2023-01-24T04:40:45.062Z,3.20
2023-01-24T04:43:15.843Z,3.10
2023-01-24T04:45:48.312Z,3.30
2023-01-24T04:48:23.047Z,3.20
2023-01-24T04:50:53.163Z,3.20
2023-01-24T04:53:22.481Z,3.20
2023-01-24T04:55:54.723Z,3.20
2023-01-24T04:58:25.649Z,3.20
2023-01-24T05:00:58.336Z,3.10
2023-01-24T05:03:33.068Z,3.20
2023-01-24T05:06:03.856Z,3.10
2023-01-24T05:08:34.786Z,3.00
2023-01-24T05:11:08.862Z,3.00
2023-01-24T05:13:47.265Z,3.00
2023-01-24T05:16:17.592Z,3.00
2023-01-24T05:18:49.798Z,3.00
2023-01-24T05:21:22.099Z,3.10
2023-01-24T05:23:52.784Z,3.10
2023-01-24T05:26:24.492Z,3.10
2023-01-24T05:28:57.522Z,3.10
2023-01-24T05:31:28.418Z,3.10
2023-01-24T05:34:02.183Z,3.10
2023-01-24T05:36:32.136Z,3.10
2023-01-24T05:39:02.172Z,3.10
2023-01-24T05:41:34.681Z,3.10
2023-01-24T05:44:05.452Z,3.20
2023-01-24T05:46:39.313Z,3.20
2023-01-24T05:49:18.591Z,3.20
2023-01-24T05:51:49.569Z,3.20
2023-01-24T05:54:29.153Z,3.20
2023-01-24T05:57:02.274Z,3.10
2023-01-24T05:59:40.442Z,3.00
2023-01-24T06:02:11.771Z,3.10
2023-01-24T06:04:44.244Z,3.10
2023-01-24T06:07:13.738Z,3.20
2023-01-24T06:09:43.971Z,3.30
2023-01-24T06:12:16.671Z,3.30
2023-01-24T06:14:47.574Z,3.20
2023-01-24T06:17:18.403Z,3.30
2023-01-24T06:19:51.548Z,3.30
2023-01-24T06:22:30.170Z,3.30
2023-01-24T06:25:00.087Z,3.20
2023-01-24T06:27:32.040Z,3.20
2023-01-24T06:30:03.022Z,3.20
2023-01-24T06:32:38.698Z,3.30
2023-01-24T06:35:20.546Z,3.30
2023-01-24T06:37:51.936Z,3.30
2023-01-24T06:40:24.109Z,3.20
2023-01-24T06:42:57.289Z,3.30
2023-01-24T06:45:26.528Z,3.30
2023-01-24T06:47:58.608Z,3.30
2023-01-24T06:50:34.917Z,3.30
2023-01-24T06:53:07.109Z,3.30
2023-01-24T06:55:36.218Z,3.20
2023-01-24T06:58:06.217Z,3.20
2023-01-24T07:00:35.741Z,3.20
2023-01-24T07:03:07.534Z,3.20
2023-01-24T07:05:39.480Z,3.20
2023-01-24T07:08:08.983Z,3.30
2023-01-24T07:10:40.572Z,3.30
2023-01-24T07:13:09.744Z,3.20
2023-01-24T07:15:38.580Z,3.20
2023-01-24T07:18:08.566Z,3.30
2023-01-24T07:20:39.807Z,3.30
2023-01-24T07:23:19.427Z,3.20
2023-01-24T07:25:48.936Z,3.20
2023-01-24T07:28:20.947Z,3.30
2023-01-24T07:30:50.845Z,3.30
2023-01-24T07:33:19.528Z,3.30
2023-01-24T07:36:14.684Z,3.30
2023-01-24T07:38:43.437Z,3.30
2023-01-24T07:41:13.164Z,3.20
2023-01-24T07:43:41.900Z,3.20
2023-01-24T07:46:10.726Z,3.20
2023-01-24T07:48:39.646Z,3.20
2023-01-24T07:51:08.668Z,3.20
2023-01-24T07:53:38.927Z,3.30
2023-01-24T07:56:24.322Z,3.30
2023-01-24T07:58:54.102Z,3.30
2023-01-24T08:01:24.979Z,3.50
2023-01-24T08:03:56.803Z,4.20
2023-01-24T08:06:26.412Z,4.30
2023-01-24T08:08:57.082Z,4.70
2023-01-24T08:11:26.859Z,4.70
2023-01-24T08:13:59.330Z,5.00
2023-01-24T08:16:28.348Z,4.90
2023-01-24T08:18:57.238Z,4.90
2023-01-24T08:21:26.009Z,4.90
2023-01-24T08:23:56.228Z,4.90
2023-01-24T08:26:25.521Z,5.10
2023-01-24T08:28:54.518Z,5.00
2023-01-24T08:31:23.627Z,5.00
2023-01-24T08:33:53.235Z,5.10
2023-01-24T08:36:23.439Z,5.00
2023-01-24T08:38:56.324Z,5.10
2023-01-24T08:41:31.698Z,5.20
2023-01-24T08:44:00.467Z,5.20
2023-01-24T08:46:31.909Z,5.10
2023-01-24T08:49:00.688Z,5.60
2023-01-24T08:51:29.586Z,5.60
2023-01-24T08:53:59.306Z,5.60
2023-01-24T08:56:28.167Z,5.70
2023-01-24T08:59:00.102Z,5.50
2023-01-24T09:01:29.519Z,5.30
2023-01-24T09:04:00.771Z,5.40
2023-01-24T09:06:30.068Z,5.30
2023-01-24T09:08:58.952Z,5.30
2023-01-24T09:11:28.170Z,5.20
2023-01-24T09:14:05.168Z,5.30
2023-01-24T09:16:34.102Z,5.70
2023-01-24T09:19:03.249Z,5.60
2023-01-24T09:21:32.440Z,5.50
2023-01-24T09:24:02.047Z,5.70
2023-01-24T09:26:38.009Z,5.80
2023-01-24T09:29:08.784Z,6.00
2023-01-24T09:31:38.721Z,5.90
2023-01-24T09:34:10.874Z,5.40
2023-01-24T09:36:39.750Z,4.80
2023-01-24T09:39:11.221Z,4.60
2023-01-24T09:42:10.588Z,4.30
2023-01-24T09:44:48.647Z,4.30
2023-01-24T09:47:22.997Z,4.50
2023-01-24T09:49:57.198Z,4.50
2023-01-24T09:52:32.506Z,4.40
2023-01-24T09:55:06.204Z,4.40
2023-01-24T09:57:43.229Z,4.20
2023-01-24T10:00:22.129Z,4.20
2023-01-24T10:02:51.427Z,4.20
2023-01-24T10:05:24.734Z,4.20
2023-01-24T10:08:14.455Z,4.30
2023-01-24T10:10:50.054Z,4.30
2023-01-24T10:13:42.519Z,4.30
2023-01-24T10:16:34.133Z,4.40
2023-01-24T10:19:12.590Z,4.60
2023-01-24T10:22:09.869Z,4.60
2023-01-24T10:24:41.982Z,4.50
2023-01-24T10:27:21.930Z,4.40
2023-01-24T10:29:58.148Z,4.40
2023-01-24T10:32:34.054Z,4.40
2023-01-24T10:35:14.485Z,4.50
2023-01-24T10:37:47.720Z,4.70
2023-01-24T10:40:18.246Z,4.80
2023-01-24T10:42:46.917Z,5.00
2023-01-24T10:45:32.553Z,4.90
2023-01-24T10:48:08.004Z,4.70
2023-01-24T10:50:43.404Z,4.70
2023-01-24T10:53:27.353Z,4.80
2023-01-24T10:56:01.777Z,4.80
2023-01-24T10:58:38.442Z,4.80
2023-01-24T11:01:10.431Z,4.80
2023-01-24T11:03:43.146Z,4.90
2023-01-24T11:06:26.306Z,5.10
2023-01-24T11:09:05.262Z,5.20
2023-01-24T11:11:35.893Z,5.40
2023-01-24T11:14:05.025Z,5.50
2023-01-24T11:16:36.800Z,5.50
2023-01-24T11:19:07.774Z,5.30
2023-01-24T11:21:53.831Z,5.40
2023-01-24T11:24:23.045Z,5.30
2023-01-24T11:27:06.340Z,5.20
2023-01-24T11:29:35.703Z,5.20
2023-01-24T11:32:24.366Z,5.30
2023-01-24T11:35:02.655Z,5.20
2023-01-24T11:37:59.012Z,5.30
2023-01-24T11:40:38.210Z,5.20
2023-01-24T11:43:39.302Z,5.20
2023-01-24T11:46:18.865Z,5.30
2023-01-24T11:48:55.236Z,5.10
2023-01-24T11:51:39.313Z,5.10
2023-01-24T11:54:24.389Z,5.10
2023-01-24T11:57:03.648Z,5.20
2023-01-24T11:59:51.782Z,5.30
2023-01-24T12:02:38.901Z,5.40
2023-01-24T12:05:26.864Z,5.30
2023-01-24T12:08:12.678Z,5.40
2023-01-24T12:11:14.830Z,5.50
2023-01-24T12:13:56.886Z,5.40
2023-01-24T12:16:38.770Z,5.50
2023-01-24T12:19:39.430Z,5.50
2023-01-24T12:22:16.482Z,5.30
2023-01-24T12:24:53.341Z,5.30
2023-01-24T12:27:26.463Z,5.40
2023-01-24T12:30:01.441Z,5.60
2023-01-24T12:32:38.066Z,5.80
2023-01-24T12:35:17.999Z,5.90
2023-01-24T12:37:59.743Z,5.90
2023-01-24T12:40:48.007Z,5.80
2023-01-24T12:43:24.098Z,5.70
2023-01-24T12:46:01.447Z,5.80
2023-01-24T12:48:41.529Z,5.80
2023-01-24T12:51:23.239Z,5.80
2023-01-24T12:54:02.266Z,5.60
2023-01-24T12:56:41.609Z,5.40
2023-01-24T12:59:14.165Z,5.50
2023-01-24T13:02:19.080Z,5.40
2023-01-24T13:04:56.408Z,5.40
2023-01-24T13:07:35.899Z,5.30
2023-01-24T13:10:12.858Z,4.90
2023-01-24T13:12:46.090Z,4.90
2023-01-24T13:15:20.732Z,5.00
2023-01-24T13:18:13.944Z,5.00
2023-01-24T13:21:04.990Z,5.20
2023-01-24T13:23:49.519Z,5.10
2023-01-24T13:26:48.674Z,5.00
2023-01-24T13:29:37.007Z,4.90
2023-01-24T13:32:11.098Z,5.00
2023-01-24T13:34:45.692Z,5.00
2023-01-24T13:37:23.669Z,4.90
2023-01-24T13:40:03.974Z,4.90
2023-01-24T13:42:38.631Z,5.00
2023-01-24T13:45:58.436Z,5.10
2023-01-24T13:48:55.837Z,4.80
2023-01-24T13:51:36.290Z,4.80
2023-01-24T13:54:07.561Z,4.90
2023-01-24T13:57:13.217Z,4.90
2023-01-24T13:59:44.144Z,5.00
2023-01-24T14:17:53.059Z,4.90
2023-01-24T14:20:36.553Z,5.00
2023-01-24T14:23:21.564Z,5.00
2023-01-24T14:26:00.413Z,4.90
2023-01-24T14:28:42.486Z,4.80
2023-01-24T14:40:39.362Z,4.90
2023-01-24T15:18:25.323Z,4.10
2023-01-24T16:15:22.078Z,3.30
2023-01-24T19:16:32.012Z,2.30
2023-01-24T19:19:00.921Z,2.40
2023-01-24T19:21:32.526Z,2.40
2023-01-24T19:24:04.729Z,2.30
2023-01-24T19:26:34.076Z,2.20
2023-01-24T19:29:03.936Z,2.20
2023-01-24T19:31:34.866Z,2.30
2023-01-24T19:34:05.738Z,2.20
2023-01-24T19:36:35.023Z,2.30
2023-01-24T19:39:04.323Z,2.30
2023-01-24T19:41:33.227Z,2.40
2023-01-24T19:44:19.009Z,2.40
2023-01-24T19:46:51.219Z,2.40
2023-01-24T19:49:20.555Z,2.30
2023-01-24T19:51:55.116Z,2.30
2023-01-24T19:54:26.497Z,2.40
2023-01-24T19:56:55.773Z,2.30
2023-01-24T19:59:25.140Z,2.30
2023-01-24T20:01:58.516Z,2.30
2023-01-24T20:04:28.435Z,2.30
2023-01-24T20:06:57.594Z,2.30
2023-01-24T20:09:26.978Z,2.20
2023-01-24T20:11:55.871Z,2.20
2023-01-24T20:14:24.784Z,2.10
2023-01-24T20:16:55.541Z,2.10
2023-01-24T20:19:29.262Z,2.10
2023-01-24T20:22:00.036Z,2.10
2023-01-24T20:24:30.194Z,2.10
2023-01-24T20:26:59.184Z,2.10
2023-01-24T20:29:28.202Z,2.10
2023-01-24T20:32:34.442Z,2.10
2023-01-24T20:36:02.771Z,2.20
2023-01-24T20:39:33.070Z,2.20
2023-01-24T20:42:16.227Z,2.10
2023-01-24T20:44:47.683Z,2.20
2023-01-24T20:47:18.208Z,2.20
2023-01-24T20:49:49.566Z,2.10
2023-01-24T20:52:19.138Z,2.10
2023-01-24T20:54:48.654Z,2.10
2023-01-24T20:57:17.364Z,2.10
2023-01-24T20:59:46.109Z,2.10
2023-01-24T21:02:14.892Z,2.00
2023-01-24T21:04:45.186Z,2.00
2023-01-24T21:07:14.076Z,1.90
2023-01-24T21:09:42.891Z,2.00
2023-01-24T21:12:11.438Z,2.10
2023-01-24T21:14:40.614Z,2.00
2023-01-24T21:17:15.945Z,2.00
2023-01-24T21:19:51.752Z,2.10
2023-01-24T21:22:20.346Z,2.10
2023-01-24T21:24:50.946Z,2.10
2023-01-24T21:27:19.908Z,2.10
2023-01-24T21:29:48.518Z,2.10
2023-01-24T21:32:17.299Z,2.00
2023-01-24T21:34:48.780Z,1.90
2023-01-24T21:37:28.034Z,1.90
2023-01-24T21:39:59.426Z,1.90
2023-01-24T21:42:27.955Z,1.80
2023-01-24T21:44:58.507Z,1.90
2023-01-24T21:47:27.017Z,2.00
2023-01-24T21:49:55.599Z,2.00
2023-01-24T21:52:26.025Z,1.90
2023-01-24T21:54:55.377Z,1.90
2023-01-24T21:57:40.966Z,1.80
2023-01-24T22:00:11.329Z,1.80
2023-01-24T22:02:43.112Z,1.90
2023-01-24T22:05:12.350Z,1.80
2023-01-24T22:07:42.876Z,2.00
2023-01-24T22:10:15.277Z,1.90
2023-01-24T22:12:44.000Z,2.00
2023-01-24T22:15:18.171Z,1.90
2023-01-24T22:17:47.147Z,1.80
2023-01-24T22:20:19.174Z,1.80
2023-01-24T22:23:15.448Z,1.80
2023-01-24T22:25:51.785Z,1.80
2023-01-24T22:28:24.751Z,1.80
2023-01-24T22:30:53.912Z,1.80
2023-01-24T22:33:26.179Z,1.70
2023-01-24T22:35:59.116Z,1.70
2023-01-24T22:38:29.961Z,1.70
2023-01-24T22:40:58.563Z,1.60
2023-01-24T22:43:27.158Z,1.50
2023-01-24T22:45:56.725Z,1.60
2023-01-24T22:48:25.358Z,1.50
2023-01-24T22:50:56.968Z,1.60
2023-01-24T22:53:25.521Z,1.60
2023-01-24T22:55:58.736Z,1.60
2023-01-24T22:58:27.468Z,1.60
2023-01-24T23:00:56.223Z,1.60
2023-01-24T23:03:24.686Z,1.50
2023-01-24T23:05:53.130Z,1.60
2023-01-24T23:08:21.401Z,1.50
2023-01-24T23:10:49.889Z,1.50
2023-01-24T23:13:36.741Z,1.40
2023-01-24T23:16:11.177Z,1.50
2023-01-24T23:18:58.837Z,1.70
2023-01-24T23:21:31.462Z,1.60
2023-01-24T23:24:01.857Z,1.60
2023-01-24T23:26:30.459Z,1.60
2023-01-24T23:29:21.435Z,1.60
2023-01-24T23:31:49.890Z,1.60
2023-01-24T23:34:33.705Z,1.70
2023-01-24T23:37:02.084Z,1.50
2023-01-24T23:39:30.879Z,1.60
2023-01-24T23:41:59.505Z,1.50
2023-01-24T23:44:29.504Z,1.60
2023-01-24T23:46:58.834Z,1.60
2023-01-24T23:49:27.382Z,1.50
2023-01-24T23:51:55.870Z,1.50
2023-01-24T23:54:24.349Z,1.50
2023-01-24T23:56:52.937Z,1.50
2023-01-24T23:59:21.673Z,1.50
